Terminal Aerodrome Forecast
Issued by NWS Amarillo, TX

Home | Current Version | Previous Version | Text Only | Print | Product List | Glossary On
Versions: 1 2 3 4 5 6 7 8 9 10 11 12 13 14 15 16 17
891
FTUS44 KAMA 300520
TAFAMA
TAF
KAMA 300520Z 3006/3106 14014KT P6SM SCT110 BKN200
     FM301000 17010KT P6SM SCT015 BKN200
      TEMPO 3010/3014 4SM BR OVC010
     FM301600 18016KT P6SM SCT040 BKN110
     FM310100 16016KT P6SM SCT110 BKN200=

USA.gov is the U.S. government's official web portal to all federal, state and local government web resources and services.